This is the latest recevied weather packets stored in our database for station/object EA1JAO-11. If no packets are shown the sender has not sent any weather packets the latest 10 day(s).
| Time | Temp. | Humidity | Pressure | Rain* | Wind** | Luminosity | Snow |
|---|---|---|---|---|---|---|---|
| 1788136109 | 69° F | 73% | 765.4 mmHg | - | - | - | - |
| 1788134309 | 69° F | 76% | 765.5 mmHg | - | - | - | - |
| 1788132509 | 68° F | 74% | 765.5 mmHg | - | - | - | - |
| 1788130710 | 70° F | 72% | 765.4 mmHg | - | - | - | - |
| 1788128909 | 69° F | 74% | 765.5 mmHg | - | - | - | - |
| 1788127109 | 69° F | 72% | 765.4 mmHg | - | - | - | - |
| 1788125309 | 70° F | 71% | 765.3 mmHg | - | - | - | - |
| 1788123509 | 71° F | 68% | 765.1 mmHg | - | - | - | - |
| 1788121709 | 72° F | 64% | 764.9 mmHg | - | - | - | - |
| 1788119909 | 72° F | 64% | 764.7 mmHg | - | - | - | - |
| 1788118109 | 72° F | 62% | 764.3 mmHg | - | - | - | - |
| 1788116309 | 72° F | 61% | 764.2 mmHg | - | - | - | - |
| 1788114509 | 74° F | 55% | 764.1 mmHg | - | - | - | - |
| 1788112709 | 77° F | 51% | 763.9 mmHg | - | - | - | - |
| 1788110908 | 86° F | 38% | 763.8 mmHg | - | - | - | - |
| 1788109109 | 95° F | 30% | 763.6 mmHg | - | - | - | - |
| 1788107309 | 95° F | 30% | 763.5 mmHg | - | - | - | - |
| 1788105509 | 102° F | 25% | 763.4 mmHg | - | - | - | - |
| 1788103709 | 100° F | 24% | 763.6 mmHg | - | - | - | - |
| 1788101909 | 102° F | 23% | 763.4 mmHg | - | - | - | - |
| 1788100108 | 100° F | 25% | 763.3 mmHg | - | - | - | - |
| 1788098308 | 96° F | 25% | 763.5 mmHg | - | - | - | - |
| 1788096508 | 97° F | 27% | 763.9 mmHg | - | - | - | - |
| 1788094708 | 96° F | 30% | 763.7 mmHg | - | - | - | - |
| 1788092908 | 91° F | 32% | 763.7 mmHg | - | - | - | - |
* Rain since midnight (hover to see other rain measurements)
** Current wind speed in m/s (hover to see current wind gust speed)